Time;durP1;ratioP1;P1;durP2;ratioP2;P2;SDS_P1;SDS_P2;PMS_P1;PMS_P2;Temp;Humidity;BMP_temperature;BMP_pressure;BME280_temperature;BME280_humidity;BME280_pressure;Samples;Min_cycle;Max_cycle;Signal;HPM_P1;HPM_P2
2021/08/10 00:02:17;;;;;;;4.63;2.70;;;;;;;24.89;47.31;100511.47;4994255;28;20034;-70
2021/08/10 00:04:42;;;;;;;6.15;2.85;;;;;;;24.91;47.29;100514.06;4994049;28;20025;-66
2021/08/10 00:07:11;;;;;;;6.45;2.78;;;;;;;24.86;47.30;100514.16;4976151;28;20493;-68
2021/08/10 00:09:36;;;;;;;4.53;2.88;;;;;;;24.69;48.04;100510.13;4994088;28;20054;-68
2021/08/10 00:12:02;;;;;;;7.88;3.03;;;;;;;24.56;48.64;100511.25;4994200;28;20065;-68
2021/08/10 00:14:27;;;;;;;4.13;2.70;;;;;;;24.69;48.78;100511.91;4994627;28;20022;-68
2021/08/10 00:16:53;;;;;;;10.23;3.20;;;;;;;24.64;49.02;100516.38;4994130;28;20105;-68
2021/08/10 00:19:18;;;;;;;4.70;2.75;;;;;;;24.48;49.77;100494.72;4959682;28;20493;-68
2021/08/10 00:21:44;;;;;;;3.90;2.92;;;;;;;24.53;48.89;100517.44;4993997;28;20112;-68
2021/08/10 00:24:09;;;;;;;5.88;3.00;;;;;;;24.33;48.83;100517.84;4994153;28;20023;-68
2021/08/10 00:26:35;;;;;;;6.68;2.72;;;;;;;24.23;48.91;100516.28;4993767;28;20088;-68
2021/08/10 00:29:04;;;;;;;6.93;3.17;;;;;;;24.32;48.50;100526.66;4993981;28;20050;-68
2021/08/10 00:31:30;;;;;;;4.43;2.60;;;;;;;24.23;48.35;100492.56;4993558;28;20084;-68
2021/08/10 00:33:56;;;;;;;4.97;2.90;;;;;;;24.57;47.93;100517.41;4993907;28;20030;-70
2021/08/10 00:36:22;;;;;;;6.00;2.67;;;;;;;24.60;47.82;100512.94;4993903;28;20033;-68
2021/08/10 00:38:48;;;;;;;7.03;2.70;;;;;;;24.38;48.21;100504.56;4993652;28;20109;-67
2021/08/10 00:41:14;;;;;;;5.10;2.40;;;;;;;24.48;48.10;100515.81;4993412;28;20087;-68
2021/08/10 00:43:41;;;;;;;4.57;2.70;;;;;;;24.26;48.81;100510.09;4993395;28;20030;-68
2021/08/10 00:46:10;;;;;;;8.80;2.60;;;;;;;24.03;48.45;100483.25;4993395;28;20069;-67
2021/08/10 00:48:35;;;;;;;6.93;3.08;;;;;;;23.83;49.87;100480.09;4993601;28;20033;-68
2021/08/10 00:51:04;;;;;;;9.27;3.15;;;;;;;24.08;49.18;100503.41;4993455;28;20420;-68
2021/08/10 00:53:30;;;;;;;7.43;3.03;;;;;;;24.26;48.83;100487.19;4993493;28;20034;-68
2021/08/10 00:55:56;;;;;;;5.93;2.55;;;;;;;24.47;48.40;100511.44;4993382;28;20413;-68
2021/08/10 00:58:21;;;;;;;7.97;3.10;;;;;;;24.31;48.45;100519.66;4993604;28;20033;-68
2021/08/10 01:00:47;;;;;;;6.18;3.00;;;;;;;24.39;48.44;100508.97;4993162;28;20037;-68
2021/08/10 01:03:13;;;;;;;8.45;3.10;;;;;;;24.25;48.94;100516.25;4993247;28;20030;-68
2021/08/10 01:05:45;;;;;;;9.48;2.80;;;;;;;24.45;48.77;100515.88;4993046;28;20053;-68
2021/08/10 01:08:17;;;;;;;6.22;3.10;;;;;;;24.73;48.03;100499.50;4993161;28;20046;-70
2021/08/10 01:10:51;;;;;;;6.30;2.80;;;;;;;24.89;47.70;100505.34;4993293;28;20041;-68
2021/08/10 01:13:38;;;;;;;4.20;2.63;;;;;;;25.07;47.31;100499.63;4993091;28;20473;-72
2021/08/10 01:16:23;;;;;;;6.18;2.85;;;;;;;24.78;48.24;100511.69;4992894;28;20050;-68
2021/08/10 01:19:03;;;;;;;4.35;2.60;;;;;;;24.64;47.95;100485.56;4992808;28;20033;-68
2021/08/10 01:21:36;;;;;;;5.75;3.13;;;;;;;24.34;48.26;100489.72;4992819;28;20033;-68
2021/08/10 01:24:11;;;;;;;5.60;2.75;;;;;;;24.34;49.01;100503.75;4992885;28;20404;-68
2021/08/10 01:26:52;;;;;;;5.45;2.50;;;;;;;24.47;48.79;100506.16;4992889;28;20034;-68
2021/08/10 01:29:28;;;;;;;7.57;2.90;;;;;;;24.45;48.75;100503.56;4992864;28;20105;-66
2021/08/10 01:31:58;;;;;;;5.43;2.80;;;;;;;24.09;50.15;100505.13;4992693;28;20038;-69
2021/08/10 01:34:29;;;;;;;5.57;3.15;;;;;;;23.64;51.44;100508.50;4993212;28;20023;-68
2021/08/10 01:36:59;;;;;;;4.95;3.15;;;;;;;23.59;51.66;100512.09;4991568;28;20501;-68
2021/08/10 01:39:28;;;;;;;8.55;3.70;;;;;;;23.74;51.00;100497.78;4992076;28;20030;-68
2021/08/10 01:41:56;;;;;;;5.07;3.22;;;;;;;23.54;51.13;100468.25;4992395;28;20567;-68
2021/08/10 01:44:25;;;;;;;5.38;3.03;;;;;;;23.79;51.29;100504.75;4958894;28;20038;-68
2021/08/10 01:46:53;;;;;;;7.10;3.50;;;;;;;23.54;51.34;100462.97;4992360;28;20388;-68
2021/08/10 01:49:19;;;;;;;6.47;3.50;;;;;;;23.86;51.63;100498.47;4992798;28;20033;-70
2021/08/10 01:51:45;;;;;;;7.82;3.22;;;;;;;23.82;51.14;100478.34;4992577;28;20034;-68
2021/08/10 01:54:13;;;;;;;6.00;3.40;;;;;;;23.83;51.16;100501.19;4992566;28;20085;-68
2021/08/10 01:56:39;;;;;;;6.82;3.40;;;;;;;23.95;51.01;100494.84;4992467;28;20485;-68
2021/08/10 01:59:06;;;;;;;5.30;3.67;;;;;;;23.97;51.31;100496.53;4991343;28;20085;-67
2021/08/10 02:01:32;;;;;;;4.80;2.92;;;;;;;23.99;50.98;100497.41;4992288;28;20057;-68
2021/08/10 02:03:58;;;;;;;5.18;3.30;;;;;;;24.11;51.12;100493.63;4992311;28;20030;-68
2021/08/10 02:06:25;;;;;;;9.60;3.50;;;;;;;24.25;50.21;100490.75;4992524;28;20094;-71
2021/08/10 02:08:53;;;;;;;6.88;3.10;;;;;;;24.27;49.46;100488.09;4992362;28;20026;-68
2021/08/10 02:11:21;;;;;;;8.35;3.40;;;;;;;24.26;49.64;100497.75;4992409;28;20030;-67
2021/08/10 02:13:47;;;;;;;9.48;3.47;;;;;;;24.10;50.23;100456.75;4990976;28;20026;-68
2021/08/10 02:16:16;;;;;;;4.47;3.53;;;;;;;24.10;50.40;100452.38;4992314;28;20116;-68
2021/08/10 02:18:41;;;;;;;5.07;3.22;;;;;;;24.30;50.15;100488.91;4992177;28;20038;-68
2021/08/10 02:21:12;;;;;;;6.40;3.70;;;;;;;24.29;50.54;100489.81;4992220;28;20026;-68
2021/08/10 02:23:38;;;;;;;7.47;3.15;;;;;;;24.30;50.84;100494.19;4992247;28;20456;-68
2021/08/10 02:26:05;;;;;;;9.18;3.60;;;;;;;24.14;50.38;100461.06;4991858;28;20023;-67
2021/08/10 02:28:31;;;;;;;6.43;3.35;;;;;;;24.16;50.07;100470.72;4992122;28;20037;-68
2021/08/10 02:31:02;;;;;;;7.68;3.55;;;;;;;24.18;50.46;100490.00;4992252;28;20027;-68
2021/08/10 02:33:28;;;;;;;5.45;3.20;;;;;;;23.88;50.60;100462.41;4992128;28;20076;-68
2021/08/10 02:35:58;;;;;;;6.63;3.00;;;;;;;23.83;51.29;100462.50;4992255;28;20084;-68
2021/08/10 02:38:26;;;;;;;6.45;3.53;;;;;;;23.79;52.11;100495.09;4991932;28;20028;-68
2021/08/10 02:40:55;;;;;;;4.60;2.85;;;;;;;23.77;51.45;100490.75;4991747;28;20030;-68
2021/08/10 02:43:23;;;;;;;;;;;;;;;23.68;51.41;100487.34;4992323;28;20461;-68
2021/08/10 02:45:49;;;;;;;6.90;3.90;;;;;;;23.72;51.02;100490.81;4991992;28;20000;-70
2021/08/10 02:48:14;;;;;;;10.13;3.33;;;;;;;23.66;51.29;100483.00;4991989;28;20370;-70
2021/08/10 02:50:40;;;;;;;8.98;4.03;;;;;;;23.53;51.82;100480.56;4990819;28;20084;-69
2021/08/10 02:53:05;;;;;;;6.72;3.60;;;;;;;23.42;51.98;100485.16;4994951;28;20046;-67
2021/08/10 02:55:34;;;;;;;7.68;3.72;;;;;;;23.37;51.55;100487.84;4995673;28;20505;-68
2021/08/10 02:58:07;;;;;;;9.90;4.20;;;;;;;23.45;51.68;100500.03;4996064;28;20076;-71
2021/08/10 03:00:40;;;;;;;11.38;4.10;;;;;;;23.52;51.29;100504.31;4995212;28;20109;-68
2021/08/10 03:03:27;;;;;;;7.85;4.05;;;;;;;23.48;51.58;100507.88;4995487;28;20113;-68
2021/08/10 03:05:55;;;;;;;10.52;3.80;;;;;;;23.47;51.19;100503.53;4995176;28;20031;-67
2021/08/10 03:08:25;;;;;;;12.32;4.35;;;;;;;23.38;51.94;100521.22;4995427;28;20104;-68
2021/08/10 03:10:53;;;;;;;14.13;4.07;;;;;;;23.03;52.17;100512.03;4995360;28;20026;-68
2021/08/10 03:13:21;;;;;;;6.82;4.25;;;;;;;22.89;53.38;100521.88;4995292;28;20061;-67
2021/08/10 03:15:49;;;;;;;14.40;4.18;;;;;;;22.49;54.63;100533.75;4995295;28;20054;-68
2021/08/10 03:18:15;;;;;;;10.32;3.70;;;;;;;22.49;54.64;100522.38;4995065;28;20030;-67
2021/08/10 03:20:43;;;;;;;6.35;3.78;;;;;;;22.41;54.63;100501.41;4995119;28;20061;-68
2021/08/10 03:23:14;;;;;;;10.10;3.63;;;;;;;22.55;53.71;100531.06;4995185;28;20554;-68
2021/08/10 03:25:42;;;;;;;11.68;4.03;;;;;;;22.68;54.14;100529.16;4995083;28;20054;-68
2021/08/10 03:28:09;;;;;;;15.45;6.65;;;;;;;22.74;53.86;100533.47;4995145;28;20022;-68
2021/08/10 03:30:36;;;;;;;9.85;4.55;;;;;;;22.79;53.63;100521.13;4994934;28;20054;-73
2021/08/10 03:33:02;;;;;;;8.68;4.28;;;;;;;22.83;53.50;100522.84;4976720;28;20051;-68
2021/08/10 03:35:28;;;;;;;12.02;4.25;;;;;;;23.00;53.21;100535.75;4994970;28;20030;-68
2021/08/10 03:37:54;;;;;;;13.55;4.07;;;;;;;23.00;52.38;100530.50;4995000;28;20033;-68
2021/08/10 03:40:20;;;;;;;10.00;4.20;;;;;;;23.06;52.38;100540.94;4994652;28;20042;-68
2021/08/10 03:42:46;;;;;;;13.57;4.00;;;;;;;23.12;52.38;100533.88;4994730;28;20022;-72
2021/08/10 03:45:13;;;;;;;14.93;4.80;;;;;;;22.84;53.17;100540.38;4994403;28;20030;-67
2021/08/10 03:47:38;;;;;;;13.00;4.25;;;;;;;22.06;55.31;100542.09;4994558;28;20030;-68
2021/08/10 03:50:05;;;;;;;11.07;3.75;;;;;;;21.92;55.48;100497.50;4994782;28;20027;-68
2021/08/10 03:52:31;;;;;;;8.35;3.65;;;;;;;22.34;54.88;100557.56;4994269;28;20037;-68
2021/08/10 03:54:57;;;;;;;14.68;3.35;;;;;;;22.50;54.15;100546.03;4994570;28;20034;-68
2021/08/10 03:57:23;;;;;;;6.35;3.20;;;;;;;22.21;54.36;100506.88;4994427;28;20113;-68
2021/08/10 03:59:54;;;;;;;8.02;3.20;;;;;;;22.17;54.27;100540.22;4994468;28;20034;-71
2021/08/10 04:02:20;;;;;;;20.92;4.10;;;;;;;22.36;54.44;100533.00;4994155;28;20026;-67
2021/08/10 04:04:50;;;;;;;10.30;3.50;;;;;;;22.36;54.21;100538.25;4976350;28;20133;-68
2021/08/10 04:07:16;;;;;;;12.75;3.85;;;;;;;22.09;55.12;100531.53;4994174;28;20030;-70
2021/08/10 04:09:43;;;;;;;13.02;4.70;;;;;;;22.33;54.77;100535.69;4994044;28;20026;-68
2021/08/10 04:12:10;;;;;;;17.20;4.55;;;;;;;22.41;54.09;100509.31;4994105;28;20391;-71
2021/08/10 04:14:36;;;;;;;9.95;3.90;;;;;;;22.68;54.02;100544.06;4994352;28;20034;-68
2021/08/10 04:17:06;;;;;;;19.08;4.60;;;;;;;22.74;53.98;100541.34;4993838;28;20069;-68
2021/08/10 04:19:35;;;;;;;22.50;4.32;;;;;;;22.74;53.86;100539.63;4994151;28;20045;-68
2021/08/10 04:22:02;;;;;;;16.45;4.47;;;;;;;22.88;53.59;100541.19;4993718;28;20493;-68
2021/08/10 04:24:27;;;;;;;13.82;4.45;;;;;;;22.94;53.07;100538.47;4993758;28;20026;-68
2021/08/10 04:26:53;;;;;;;16.48;4.20;;;;;;;22.94;53.80;100528.81;4993864;28;20381;-68
2021/08/10 04:29:19;;;;;;;8.13;3.97;;;;;;;23.03;53.49;100530.47;4993850;28;20041;-68
2021/08/10 04:31:45;;;;;;;14.20;4.38;;;;;;;23.10;53.39;100532.13;4993984;28;20034;-68
2021/08/10 04:34:11;;;;;;;21.40;4.30;;;;;;;23.00;53.63;100517.31;4993972;28;20027;-68
2021/08/10 04:36:36;;;;;;;8.07;4.20;;;;;;;23.03;53.56;100530.47;4993772;28;20504;-68
2021/08/10 04:39:02;;;;;;;12.32;4.80;;;;;;;23.06;53.59;100521.66;4993668;28;20081;-68
2021/08/10 04:41:28;;;;;;;10.57;4.07;;;;;;;23.15;54.06;100532.03;4993584;28;20405;-68
2021/08/10 04:43:54;;;;;;;14.68;4.78;;;;;;;22.90;53.50;100534.16;4993460;28;20073;-68
2021/08/10 04:46:22;;;;;;;14.93;4.43;;;;;;;22.76;54.09;100527.28;4993639;28;20029;-68
2021/08/10 04:48:48;;;;;;;19.02;5.20;;;;;;;22.70;53.89;100477.38;4993548;28;20030;-68
2021/08/10 04:51:14;;;;;;;8.60;4.45;;;;;;;23.00;53.72;100522.59;4993408;28;20037;-68
2021/08/10 04:53:39;;;;;;;16.77;5.07;;;;;;;22.78;55.46;100536.06;4993346;28;20092;-68
2021/08/10 04:56:06;;;;;;;10.10;4.25;;;;;;;22.84;54.84;100556.19;4993387;28;20026;-68
2021/08/10 04:58:32;;;;;;;11.35;4.70;;;;;;;22.85;54.46;100531.56;4993395;28;20034;-67
2021/08/10 05:00:57;;;;;;;8.93;4.20;;;;;;;23.16;53.67;100557.53;4993143;28;20100;-68
2021/08/10 05:03:22;;;;;;;17.42;4.28;;;;;;;22.96;54.95;100552.50;4993414;28;20382;-68
2021/08/10 05:05:51;;;;;;;12.02;4.00;;;;;;;22.72;55.83;100556.31;4993161;28;20030;-68
2021/08/10 05:08:16;;;;;;;33.42;4.90;;;;;;;22.69;54.80;100514.22;4993294;28;20448;-68
2021/08/10 05:10:43;;;;;;;33.17;4.82;;;;;;;23.06;54.42;100559.38;4992996;28;20045;-72
2021/08/10 05:13:09;;;;;;;24.67;4.90;;;;;;;23.12;54.53;100557.56;4993215;28;20030;-68
2021/08/10 05:15:36;;;;;;;12.60;4.30;;;;;;;23.14;54.88;100547.88;4991075;28;20046;-68
2021/08/10 05:18:01;;;;;;;9.25;4.32;;;;;;;23.27;55.01;100557.38;4992779;28;20062;-68
2021/08/10 05:20:26;;;;;;;7.55;3.83;;;;;;;23.45;54.22;100566.75;4992980;28;20049;-68
2021/08/10 05:22:52;;;;;;;10.18;4.20;;;;;;;23.41;54.86;100563.34;4992966;28;20117;-68
2021/08/10 05:25:17;;;;;;;12.48;4.13;;;;;;;23.59;54.68;100570.06;4992715;28;20026;-67
2021/08/10 05:27:43;;;;;;;6.13;3.50;;;;;;;23.64;53.71;100562.09;4992754;28;20057;-68
2021/08/10 05:30:09;;;;;;;9.85;3.85;;;;;;;23.75;53.49;100562.81;4993000;28;20026;-68
2021/08/10 05:32:34;;;;;;;6.78;3.88;;;;;;;23.70;53.98;100545.31;4993081;28;20392;-68
2021/08/10 05:35:00;;;;;;;12.40;3.88;;;;;;;23.84;53.55;100559.13;4992672;28;20033;-68
2021/08/10 05:37:25;;;;;;;19.55;4.80;;;;;;;23.94;53.76;100552.00;4992576;28;20377;-67
2021/08/10 05:39:51;;;;;;;14.02;4.70;;;;;;;24.03;53.11;100549.16;4991144;28;20026;-67
2021/08/10 05:42:16;;;;;;;15.57;4.63;;;;;;;24.02;53.28;100557.97;4992773;28;20041;-68
2021/08/10 05:44:42;;;;;;;15.52;4.80;;;;;;;24.02;53.64;100554.47;4992928;28;20022;-68
2021/08/10 05:47:07;;;;;;;13.73;4.47;;;;;;;24.18;53.06;100558.56;4992523;28;20027;-70
2021/08/10 05:49:33;;;;;;;16.67;4.57;;;;;;;24.00;55.46;100566.81;4992437;28;20041;-68
2021/08/10 05:51:58;;;;;;;15.63;5.45;;;;;;;23.66;53.90;100538.34;4992530;28;20037;-68
2021/08/10 05:54:24;;;;;;;17.50;4.82;;;;;;;23.59;53.92;100537.59;4974416;28;20042;-68
2021/08/10 05:56:50;;;;;;;20.25;5.10;;;;;;;23.84;54.35;100548.59;4992353;28;20034;-68
2021/08/10 05:59:15;;;;;;;16.63;5.03;;;;;;;24.23;53.37;100576.97;4992396;28;20041;-68
2021/08/10 06:01:41;;;;;;;14.65;4.75;;;;;;;24.19;53.79;100589.34;4992130;28;20030;-68
2021/08/10 06:04:06;;;;;;;16.20;5.40;;;;;;;23.98;54.61;100584.44;4992314;28;20024;-67
2021/08/10 06:06:34;;;;;;;11.38;4.80;;;;;;;23.97;54.20;100590.63;4992241;28;20031;-68
2021/08/10 06:09:01;;;;;;;14.50;4.70;;;;;;;24.13;54.93;100584.19;4992183;28;20069;-68
2021/08/10 06:11:26;;;;;;;15.35;5.57;;;;;;;24.09;55.30;100581.59;4992335;28;20037;-68
2021/08/10 06:13:52;;;;;;;15.85;5.15;;;;;;;24.16;54.70;100560.41;4992430;28;20030;-68
2021/08/10 06:16:17;;;;;;;11.07;4.65;;;;;;;24.34;53.74;100569.72;4992735;28;20050;-68
2021/08/10 06:18:43;;;;;;;15.85;4.97;;;;;;;24.46;54.88;100550.16;4992205;28;20026;-68
2021/08/10 06:21:08;;;;;;;8.70;4.50;;;;;;;24.71;53.03;100541.75;4992049;28;20470;-71
2021/08/10 06:23:35;;;;;;;12.93;4.50;;;;;;;24.97;52.27;100535.97;4991991;28;20041;-68
2021/08/10 06:26:00;;;;;;;13.75;6.72;;;;;;;25.09;52.28;100544.50;4993869;28;20058;-68
2021/08/10 06:28:26;;;;;;;12.18;4.95;;;;;;;25.24;52.31;100549.44;4996525;28;20050;-68
2021/08/10 06:30:51;;;;;;;16.70;6.68;;;;;;;25.47;53.32;100556.00;4996065;28;20030;-68
2021/08/10 06:33:16;;;;;;;17.38;6.97;;;;;;;25.67;53.14;100568.72;4995903;28;20026;-68
2021/08/10 06:35:42;;;;;;;15.80;6.50;;;;;;;25.60;51.07;100568.03;4995986;28;20084;-70
2021/08/10 06:38:07;;;;;;;22.50;6.40;;;;;;;25.56;51.58;100533.75;4995584;28;20106;-68
2021/08/10 06:40:33;;;;;;;14.38;7.70;;;;;;;25.59;50.35;100531.91;4995768;28;20034;-68
2021/08/10 06:42:58;;;;;;;23.05;8.20;;;;;;;25.84;50.42;100574.50;4995778;28;20034;-68
2021/08/10 06:45:24;;;;;;;14.18;6.65;;;;;;;25.97;50.18;100574.16;4995842;28;20030;-68
2021/08/10 06:47:51;;;;;;;15.90;6.50;;;;;;;26.24;49.51;100566.47;4995781;28;20033;-68
2021/08/10 06:50:17;;;;;;;15.02;6.53;;;;;;;26.52;48.84;100558.63;4995916;28;20040;-68
2021/08/10 06:52:43;;;;;;;14.02;7.10;;;;;;;26.63;48.72;100559.19;4995802;28;20473;-68
2021/08/10 06:55:09;;;;;;;13.55;6.30;;;;;;;26.67;47.75;100524.66;4995836;28;20022;-68
2021/08/10 06:57:34;;;;;;;11.18;6.20;;;;;;;26.90;48.51;100558.47;4995376;28;20019;-68
2021/08/10 07:00:03;;;;;;;16.00;5.72;;;;;;;26.97;47.87;100549.44;4995612;28;20030;-68
2021/08/10 07:02:28;;;;;;;14.93;5.33;;;;;;;27.00;47.03;100522.84;4993691;28;20456;-68
2021/08/10 07:04:54;;;;;;;12.98;5.07;;;;;;;27.35;46.47;100552.66;4995465;28;20018;-68
2021/08/10 07:07:19;;;;;;;16.95;5.38;;;;;;;27.39;47.55;100561.38;4995312;28;20405;-68
2021/08/10 07:09:45;;;;;;;11.93;4.85;;;;;;;27.37;46.69;100555.28;4995381;28;20530;-68
2021/08/10 07:12:10;;;;;;;13.38;4.85;;;;;;;27.45;46.94;100550.63;4995501;28;20113;-68
2021/08/10 07:14:35;;;;;;;9.30;4.30;;;;;;;27.48;46.53;100545.25;4995462;28;20413;-67
2021/08/10 07:17:01;;;;;;;13.93;4.50;;;;;;;27.53;47.13;100542.44;4995013;28;20050;-68
2021/08/10 07:19:26;;;;;;;8.32;4.82;;;;;;;27.71;45.33;100540.97;5010027;28;20030;-67
2021/08/10 07:21:52;;;;;;;14.50;4.47;;;;;;;27.86;45.03;100540.44;4994887;28;20034;-68
2021/08/10 07:24:19;;;;;;;15.18;4.38;;;;;;;27.95;45.94;100538.38;4995053;28;20037;-68
2021/08/10 07:26:45;;;;;;;9.13;3.90;;;;;;;28.09;44.02;100530.84;4995220;28;20034;-68
2021/08/10 07:29:10;;;;;;;7.05;3.63;;;;;;;27.95;46.59;100509.19;4995204;28;20022;-68
2021/08/10 07:31:35;;;;;;;8.38;4.20;;;;;;;27.97;44.25;100484.34;4995092;28;20112;-68
2021/08/10 07:34:01;;;;;;;19.45;4.60;;;;;;;28.31;44.04;100509.69;4995101;28;20030;-68
2021/08/10 07:36:26;;;;;;;9.88;4.10;;;;;;;28.54;43.00;100513.31;4993173;28;20030;-68
2021/08/10 07:38:52;;;;;;;11.13;4.05;;;;;;;28.65;42.80;100511.13;4994199;28;20029;-68
2021/08/10 07:41:19;;;;;;;11.10;4.20;;;;;;;28.57;42.82;100503.44;4994514;28;20569;-68
2021/08/10 07:43:44;;;;;;;12.35;4.35;;;;;;;28.57;44.22;100516.72;4994563;28;20032;-68
2021/08/10 07:46:10;;;;;;;11.88;4.10;;;;;;;28.61;43.47;100511.28;4994598;28;20460;-67
2021/08/10 07:48:36;;;;;;;9.02;4.13;;;;;;;28.71;43.46;100524.22;4994596;28;20026;-68
2021/08/10 07:51:01;;;;;;;12.43;4.65;;;;;;;28.79;46.82;100493.81;4993348;28;20580;-67
2021/08/10 07:53:27;;;;;;;11.20;3.95;;;;;;;28.96;42.98;100512.63;4994327;28;20026;-68
2021/08/10 07:55:52;;;;;;;11.40;4.20;;;;;;;29.01;41.98;100509.78;4994394;28;20050;-68
2021/08/10 07:58:18;;;;;;;11.20;4.07;;;;;;;29.23;45.76;100507.13;4976110;28;20040;-68
2021/08/10 08:00:44;;;;;;;16.25;4.60;;;;;;;29.39;41.83;100499.44;4994281;28;20030;-68
2021/08/10 08:03:14;;;;;;;10.18;3.85;;;;;;;29.66;41.90;100501.88;4994414;28;20114;-68
2021/08/10 08:05:40;;;;;;;11.00;4.22;;;;;;;29.78;44.39;100504.00;4994303;28;20495;-68
2021/08/10 08:08:05;;;;;;;9.90;4.28;;;;;;;29.44;44.59;100492.13;4994345;28;20030;-69
2021/08/10 08:10:31;;;;;;;10.82;3.75;;;;;;;29.56;43.67;100514.69;4993075;28;20042;-69
2021/08/10 08:12:57;;;;;;;12.43;4.32;;;;;;;29.49;43.60;100524.72;4994315;28;20030;-68
2021/08/10 08:15:22;;;;;;;13.48;4.13;;;;;;;29.47;42.29;100502.66;4994172;28;20031;-69
2021/08/10 08:17:48;;;;;;;13.90;4.82;;;;;;;29.64;43.13;100522.34;4994091;28;20050;-68
2021/08/10 08:20:14;;;;;;;8.95;3.90;;;;;;;29.79;42.67;100534.16;4993826;28;20046;-68
2021/08/10 08:22:40;;;;;;;11.50;4.18;;;;;;;29.99;43.05;100525.31;4959660;28;20113;-73
2021/08/10 08:25:05;;;;;;;12.70;4.15;;;;;;;30.18;42.25;100509.41;4994044;28;20177;-68
2021/08/10 08:27:31;;;;;;;8.75;3.90;;;;;;;30.38;41.14;100503.22;4994111;28;20481;-68
2021/08/10 08:29:57;;;;;;;8.48;4.03;;;;;;;30.49;39.89;100492.97;4993803;28;20477;-68
2021/08/10 08:32:22;;;;;;;15.63;4.20;;;;;;;30.49;39.46;100487.63;4993824;28;20030;-68
2021/08/10 08:34:48;;;;;;;9.23;4.00;;;;;;;30.65;42.26;100502.88;4993507;28;20453;-68
2021/08/10 08:37:13;;;;;;;12.02;4.35;;;;;;;30.69;40.22;100492.94;4993728;28;20484;-68
2021/08/10 08:39:40;;;;;;;11.60;4.80;;;;;;;30.77;38.67;100507.66;4992594;28;20035;-68
2021/08/10 08:42:06;;;;;;;12.63;4.25;;;;;;;30.81;38.28;100503.88;4993770;28;20029;-69
2021/08/10 08:44:37;;;;;;;10.98;4.10;;;;;;;30.84;39.34;100494.88;4992458;28;20104;-68
2021/08/10 08:47:08;;;;;;;11.23;3.95;;;;;;;30.84;40.85;100502.88;4993464;28;20026;-72
2021/08/10 08:49:36;;;;;;;9.75;3.90;;;;;;;30.91;42.16;100503.47;4992458;28;20038;-68
2021/08/10 08:52:10;;;;;;;7.25;3.55;;;;;;;30.91;39.43;100498.13;4993683;28;20489;-69
2021/08/10 08:54:38;;;;;;;8.18;3.85;;;;;;;30.78;40.89;100487.19;4992202;28;20125;-68
2021/08/10 08:57:04;;;;;;;8.70;4.33;;;;;;;30.72;40.62;100485.69;4993420;28;20026;-68
2021/08/10 08:59:30;;;;;;;8.48;3.92;;;;;;;30.78;41.25;100488.06;4993262;28;20651;-68
2021/08/10 09:01:56;;;;;;;10.90;4.10;;;;;;;30.63;39.78;100454.13;4993057;28;20046;-71
2021/08/10 09:04:21;;;;;;;9.40;4.20;;;;;;;30.66;38.96;100446.00;4993429;28;20449;-68
2021/08/10 09:06:48;;;;;;;8.52;4.03;;;;;;;30.91;39.29;100479.47;4993221;28;20022;-69
2021/08/10 09:09:28;;;;;;;9.55;3.90;;;;;;;30.91;36.99;100472.34;4993104;28;20034;-69
2021/08/10 09:11:58;;;;;;;12.32;4.70;;;;;;;30.97;37.74;100480.03;4993001;28;20026;-68
2021/08/10 09:14:25;;;;;;;9.38;5.70;;;;;;;30.95;37.75;100460.56;4993304;28;20113;-68
2021/08/10 09:17:10;;;;;;;16.85;5.13;;;;;;;31.05;37.09;100478.81;4993243;28;20056;-67
2021/08/10 09:19:53;;;;;;;6.80;4.22;;;;;;;30.93;36.87;100458.91;4993177;28;20042;-69
2021/08/10 09:22:23;;;;;;;13.38;6.13;;;;;;;31.30;37.28;100470.47;4958882;28;20053;-68
2021/08/10 09:25:04;;;;;;;7.15;4.15;;;;;;;31.55;35.61;100464.75;4992597;28;20022;-68
2021/08/10 09:27:34;;;;;;;7.13;3.85;;;;;;;31.44;35.25;100457.31;4993002;28;20034;-68
2021/08/10 09:30:01;;;;;;;8.63;4.45;;;;;;;31.47;35.38;100450.97;4992754;28;20408;-68
2021/08/10 09:32:27;;;;;;;7.32;3.53;;;;;;;31.43;33.94;100431.59;4974720;28;20485;-68
2021/08/10 09:35:16;;;;;;;9.50;4.35;;;;;;;31.78;33.54;100447.59;4992603;28;20027;-68
2021/08/10 09:38:00;;;;;;;;;;;;;;;31.98;33.41;100447.47;4993135;28;20042;-68
2021/08/10 09:40:52;;;;;;;7.93;4.95;;;;;;;32.16;35.75;100451.84;4992631;28;20008;-69
2021/08/10 09:43:35;;;;;;;6.93;3.75;;;;;;;32.47;34.39;100436.00;4992404;28;20034;-68
2021/08/10 09:46:14;;;;;;;5.93;3.70;;;;;;;32.86;34.21;100440.06;4992643;28;20026;-68
2021/08/10 09:48:50;;;;;;;5.50;4.03;;;;;;;32.98;33.96;100436.69;4992342;28;20033;-69
2021/08/10 09:51:21;;;;;;;8.45;4.05;;;;;;;33.13;34.54;100434.94;4992605;28;20065;-68
2021/08/10 09:54:16;;;;;;;10.05;4.07;;;;;;;33.10;35.62;100435.13;4992415;28;20033;-68
2021/08/10 09:56:59;;;;;;;7.53;4.15;;;;;;;33.17;32.69;100441.84;4913230;29;20491;-70
2021/08/10 09:59:43;;;;;;;7.40;3.78;;;;;;;33.17;31.06;100436.50;4913503;29;20025;-68
2021/08/10 10:02:19;;;;;;;5.80;3.72;;;;;;;33.20;31.23;100411.38;4913142;29;20036;-68
2021/08/10 10:04:54;;;;;;;6.68;3.80;;;;;;;33.28;31.61;100433.16;4913214;29;20032;-68
2021/08/10 10:07:21;;;;;;;6.13;4.25;;;;;;;33.30;29.78;100417.94;4913255;29;20076;-68
2021/08/10 10:09:46;;;;;;;7.93;3.97;;;;;;;32.99;30.99;100429.53;4913521;29;20064;-68
2021/08/10 10:12:13;;;;;;;8.18;4.00;;;;;;;32.82;30.63;100422.47;4913529;29;20066;-68
2021/08/10 10:14:39;;;;;;;5.28;3.70;;;;;;;32.78;31.75;100402.22;4913134;29;20043;-69
2021/08/10 10:17:06;;;;;;;9.95;4.03;;;;;;;33.04;32.39;100422.94;4913108;29;20507;-69
2021/08/10 10:19:36;;;;;;;8.70;4.28;;;;;;;33.14;31.23;100427.78;4897697;29;20075;-68
2021/08/10 10:22:14;;;;;;;8.88;4.22;;;;;;;33.27;30.06;100419.88;4913201;29;20056;-69
2021/08/10 10:24:40;;;;;;;20.98;4.60;;;;;;;33.55;30.39;100416.47;4913031;29;20040;-68
2021/08/10 10:27:07;;;;;;;6.88;3.75;;;;;;;33.81;30.33;100408.63;4894270;29;20583;-69
2021/08/10 10:29:37;;;;;;;7.32;3.60;;;;;;;34.08;30.56;100390.00;4894298;29;20078;-69
2021/08/10 10:32:02;;;;;;;5.85;4.13;;;;;;;34.10;28.34;100384.56;4898441;29;20051;-68
2021/08/10 10:34:29;;;;;;;7.97;4.20;;;;;;;34.24;28.29;100408.66;4951400;29;20039;-68
2021/08/10 10:36:57;;;;;;;7.50;3.65;;;;;;;34.56;27.66;100402.19;4951096;29;20040;-68
2021/08/10 10:39:29;;;;;;;9.82;3.92;;;;;;;34.76;26.91;100395.56;4951148;29;20043;-68
2021/08/10 10:41:57;;;;;;;6.80;4.00;;;;;;;34.92;26.58;100396.28;4950886;29;20534;-68
2021/08/10 10:44:40;;;;;;;7.60;4.10;;;;;;;35.08;26.33;100393.44;4951096;29;20618;-69
2021/08/10 10:47:24;;;;;;;4.80;3.60;;;;;;;34.98;27.02;100392.31;4951331;29;20039;-69
2021/08/10 10:49:56;;;;;;;5.70;3.90;;;;;;;35.21;26.39;100385.41;4951415;29;20032;-69
2021/08/10 10:52:26;;;;;;;5.80;4.05;;;;;;;35.54;25.86;100386.75;4950937;29;20043;-68
2021/08/10 10:54:55;;;;;;;10.75;3.83;;;;;;;35.63;25.77;100361.09;4951012;29;20031;-69
2021/08/10 10:57:32;;;;;;;12.13;3.92;;;;;;;35.84;25.33;100374.81;4958912;28;20035;-69
2021/08/10 11:00:05;;;;;;;9.15;3.92;;;;;;;35.90;24.92;100373.53;4991925;28;20503;-69
2021/08/10 11:02:36;;;;;;;11.40;4.20;;;;;;;35.97;24.82;100372.16;4991641;28;20034;-69
2021/08/10 11:05:08;;;;;;;6.72;3.92;;;;;;;36.06;25.79;100367.94;4991545;28;20030;-71
2021/08/10 11:07:37;;;;;;;4.90;3.65;;;;;;;36.23;25.72;100364.88;4991865;28;20098;-69
2021/08/10 11:10:11;;;;;;;7.55;4.13;;;;;;;35.68;24.99;100341.94;4991816;28;20030;-69
2021/08/10 11:12:47;;;;;;;6.15;4.45;;;;;;;35.43;24.34;100354.41;4992820;28;20133;-69
2021/08/10 11:15:21;;;;;;;4.90;3.85;;;;;;;35.43;25.19;100349.03;4995065;28;20121;-67
2021/08/10 11:18:08;;;;;;;4.97;3.80;;;;;;;36.07;23.75;100358.91;4995481;28;20082;-72
2021/08/10 11:20:36;;;;;;;8.18;3.55;;;;;;;36.17;26.69;100318.78;4995012;28;20704;-69
2021/08/10 11:23:28;;;;;;;6.95;3.70;;;;;;;36.64;22.87;100362.81;4995322;28;20030;-68
2021/08/10 11:26:14;;;;;;;5.57;3.85;;;;;;;36.88;23.48;100353.91;4994920;28;20034;-69
2021/08/10 11:28:50;;;;;;;6.28;4.07;;;;;;;36.98;23.58;100346.00;4995090;28;20030;-68